createdAt,value
2018-11-27T00:01:02.436Z,46.63
2018-11-27T00:03:36.878Z,44.43
2018-11-27T00:06:08.629Z,47.83
2018-11-27T00:08:37.678Z,53.40
2018-11-27T00:11:06.757Z,48.87
2018-11-27T00:13:35.757Z,49.37
2018-11-27T00:16:04.747Z,46.73
2018-11-27T00:18:33.760Z,52.40
2018-11-27T00:21:01.782Z,49.93
2018-11-27T00:23:29.720Z,46.90
2018-11-27T00:25:58.423Z,46.93
2018-11-27T00:28:27.302Z,46.10
2018-11-27T00:30:55.165Z,43.37
2018-11-27T00:33:23.013Z,45.73
2018-11-27T00:35:50.874Z,44.40
2018-11-27T00:38:18.729Z,45.93
2018-11-27T00:40:46.561Z,45.97
2018-11-27T00:43:14.412Z,42.33
2018-11-27T00:45:42.281Z,41.47
2018-11-27T00:48:10.138Z,36.93
2018-11-27T00:50:37.981Z,38.43
2018-11-27T00:53:05.863Z,38.17
2018-11-27T00:55:33.705Z,34.97
2018-11-27T00:58:01.561Z,34.90
2018-11-27T01:00:29.419Z,35.20
2018-11-27T01:02:57.261Z,33.80
2018-11-27T01:05:25.205Z,33.90
2018-11-27T01:07:53.121Z,37.53
2018-11-27T01:10:21.450Z,32.57
2018-11-27T01:12:49.343Z,33.80
2018-11-27T01:15:17.220Z,37.57
2018-11-27T01:17:45.655Z,36.47
2018-11-27T01:20:14.025Z,34.97
2018-11-27T01:22:41.896Z,39.80
2018-11-27T01:25:09.971Z,40.10
2018-11-27T01:27:37.873Z,39.53
2018-11-27T01:30:07.965Z,39.00
2018-11-27T01:32:35.814Z,39.00
2018-11-27T01:35:03.994Z,36.80
2018-11-27T01:37:31.848Z,31.00
2018-11-27T01:39:59.702Z,30.50
2018-11-27T01:42:27.550Z,30.43
2018-11-27T01:44:55.385Z,27.80
2018-11-27T01:47:23.224Z,29.87
2018-11-27T01:49:51.084Z,24.60
2018-11-27T01:52:25.580Z,24.77
2018-11-27T01:54:53.410Z,25.97
2018-11-27T01:57:21.249Z,26.20
2018-11-27T01:59:49.084Z,28.73
2018-11-27T02:02:16.932Z,26.07
2018-11-27T02:04:51.330Z,25.70
2018-11-27T02:07:19.178Z,27.10
2018-11-27T02:09:47.013Z,26.33
2018-11-27T02:12:14.859Z,29.20
2018-11-27T02:14:42.693Z,28.60
2018-11-27T02:17:10.745Z,25.23
2018-11-27T02:19:38.601Z,27.90
2018-11-27T02:22:06.657Z,29.07
2018-11-27T02:24:34.701Z,23.93
2018-11-27T02:27:02.734Z,23.80
2018-11-27T02:29:30.773Z,24.63
2018-11-27T02:31:58.614Z,24.43
2018-11-27T02:34:26.652Z,17.13
2018-11-27T02:36:54.665Z,25.80
2018-11-27T02:39:22.713Z,28.00
2018-11-27T02:41:50.756Z,30.20
2018-11-27T02:44:18.643Z,27.47
2018-11-27T02:46:46.490Z,31.23
2018-11-27T02:49:14.347Z,31.87
2018-11-27T02:51:42.191Z,34.30
2018-11-27T02:54:10.053Z,35.57
2018-11-27T02:56:37.900Z,37.90
2018-11-27T02:59:06.281Z,38.63
2018-11-27T03:01:34.308Z,42.80
2018-11-27T03:04:02.354Z,40.93
2018-11-27T03:06:30.386Z,46.67
2018-11-27T03:08:58.410Z,44.33
2018-11-27T03:11:26.456Z,40.90
2018-11-27T03:13:54.474Z,39.17
2018-11-27T03:16:22.505Z,37.60
2018-11-27T03:18:50.542Z,37.00
2018-11-27T03:21:18.586Z,37.70
2018-11-27T03:23:46.621Z,38.20
2018-11-27T03:26:14.665Z,36.90
2018-11-27T03:28:42.702Z,37.07
2018-11-27T03:31:10.761Z,40.37
2018-11-27T03:33:38.806Z,40.43
2018-11-27T03:36:06.854Z,41.50
2018-11-27T03:38:34.896Z,37.77
2018-11-27T03:41:02.929Z,38.13
2018-11-27T03:43:30.948Z,41.97
2018-11-27T03:45:58.973Z,35.93
2018-11-27T03:48:27.015Z,32.77
2018-11-27T03:50:55.061Z,34.93
2018-11-27T03:53:23.080Z,38.47
2018-11-27T03:55:51.298Z,34.67
2018-11-27T03:58:19.343Z,37.53
2018-11-27T04:00:47.383Z,39.13
2018-11-27T04:03:15.440Z,41.33
2018-11-27T04:05:43.527Z,35.63
2018-11-27T04:08:11.614Z,39.53
2018-11-27T04:10:40.700Z,37.23
2018-11-27T04:13:08.726Z,35.33
2018-11-27T04:15:36.776Z,36.53
2018-11-27T04:18:04.861Z,41.80
2018-11-27T04:20:32.903Z,40.93
2018-11-27T04:23:00.939Z,42.07
2018-11-27T04:25:29.007Z,39.53
2018-11-27T04:27:57.066Z,40.13
2018-11-27T04:30:25.100Z,42.30
2018-11-27T04:32:53.125Z,37.70
2018-11-27T04:35:21.720Z,37.30
2018-11-27T04:37:49.841Z,43.20
2018-11-27T04:40:20.813Z,42.47
2018-11-27T04:42:48.893Z,38.67
2018-11-27T04:45:23.523Z,41.00
2018-11-27T04:47:51.566Z,43.67
2018-11-27T04:50:19.889Z,44.40
2018-11-27T04:52:47.958Z,43.10
2018-11-27T04:55:16.814Z,44.13
2018-11-27T04:57:45.640Z,37.13
2018-11-27T05:00:14.634Z,37.23
2018-11-27T05:02:42.651Z,33.13
2018-11-27T05:05:10.763Z,34.53
2018-11-27T05:07:38.866Z,41.47
2018-11-27T05:10:11.220Z,39.00
2018-11-27T05:12:39.602Z,33.77
2018-11-27T05:15:11.574Z,33.70
2018-11-27T05:17:39.605Z,34.57
2018-11-27T05:20:09.042Z,32.20
2018-11-27T05:22:37.089Z,32.03
2018-11-27T05:25:06.915Z,30.10
2018-11-27T05:27:34.958Z,28.07
2018-11-27T05:30:03.410Z,29.87
2018-11-27T05:32:31.425Z,31.87
2018-11-27T05:34:59.466Z,33.13
2018-11-27T05:37:27.508Z,34.30
2018-11-27T05:39:55.558Z,32.70
2018-11-27T05:42:23.677Z,32.87
2018-11-27T05:44:51.702Z,32.17
2018-11-27T05:47:19.734Z,33.43
2018-11-27T05:49:47.786Z,32.80
2018-11-27T05:52:15.842Z,36.83
2018-11-27T05:54:43.876Z,35.43
2018-11-27T05:57:11.926Z,36.77
2018-11-27T05:59:39.959Z,38.73
2018-11-27T06:02:08.058Z,41.13
2018-11-27T06:04:36.110Z,36.63
2018-11-27T06:07:04.146Z,34.03
2018-11-27T06:09:32.178Z,36.47
2018-11-27T06:12:00.213Z,39.47
2018-11-27T06:14:28.281Z,43.80
2018-11-27T06:16:56.336Z,45.00
2018-11-27T06:19:24.376Z,46.53
2018-11-27T06:21:52.429Z,41.53
2018-11-27T06:24:20.615Z,41.00
2018-11-27T06:26:48.645Z,41.37
2018-11-27T06:29:16.688Z,51.70
2018-11-27T06:31:44.816Z,49.93
2018-11-27T06:34:12.837Z,49.97
2018-11-27T06:36:40.898Z,46.90
2018-11-27T06:39:10.035Z,48.27
2018-11-27T06:41:38.102Z,39.17
2018-11-27T06:44:06.392Z,34.07
2018-11-27T06:46:34.585Z,32.53
2018-11-27T06:49:02.802Z,36.57
2018-11-27T06:51:30.867Z,32.27
2018-11-27T06:53:58.894Z,31.30
2018-11-27T06:56:27.449Z,33.60
2018-11-27T06:58:56.094Z,42.57
2018-11-27T07:01:24.826Z,37.03
2018-11-27T07:03:53.368Z,35.53
2018-11-27T07:06:21.877Z,35.67
2018-11-27T07:08:49.901Z,35.53
2018-11-27T07:11:18.151Z,41.23
2018-11-27T07:13:46.196Z,40.10
2018-11-27T07:16:14.392Z,38.37
2018-11-27T07:18:42.599Z,46.53
2018-11-27T07:21:11.365Z,38.17
2018-11-27T07:23:39.372Z,36.53
2018-11-27T07:26:07.418Z,41.30
2018-11-27T07:28:35.449Z,45.63
2018-11-27T07:31:03.500Z,63.60
2018-11-27T07:33:31.534Z,44.53
2018-11-27T07:35:59.569Z,52.63
2018-11-27T07:38:27.607Z,59.07
2018-11-27T07:40:55.778Z,57.90
2018-11-27T07:43:23.813Z,57.00
2018-11-27T07:45:55.145Z,47.53
2018-11-27T07:48:19.946Z,50.07
2018-11-27T07:50:47.988Z,68.07
2018-11-27T07:53:16.043Z,68.53
2018-11-27T07:55:44.109Z,59.87
2018-11-27T07:58:12.136Z,63.07
2018-11-27T08:00:40.614Z,72.83
2018-11-27T08:03:08.676Z,79.57
2018-11-27T08:05:39.914Z,104.83
2018-11-27T08:08:09.599Z,80.97
2018-11-27T08:10:37.769Z,85.63
2018-11-27T08:13:06.994Z,79.87
2018-11-27T08:15:35.078Z,98.17
2018-11-27T08:18:03.200Z,113.83
2018-11-27T08:20:32.404Z,118.43
2018-11-27T08:23:00.679Z,108.10
2018-11-27T08:25:28.751Z,109.97
2018-11-27T08:27:56.876Z,110.30
2018-11-27T08:30:25.255Z,112.03
2018-11-27T08:32:54.069Z,99.03
2018-11-27T08:35:23.128Z,137.10
2018-11-27T08:37:52.252Z,119.47
2018-11-27T08:40:21.504Z,118.30
2018-11-27T08:42:49.869Z,128.70
2018-11-27T08:45:19.952Z,122.67
2018-11-27T08:47:48.749Z,93.53
2018-11-27T08:50:17.920Z,110.30
2018-11-27T08:52:47.295Z,94.73
2018-11-27T08:55:17.476Z,70.87
2018-11-27T08:57:46.137Z,114.20
2018-11-27T09:00:16.341Z,86.77
2018-11-27T09:02:45.532Z,64.50
2018-11-27T09:05:12.859Z,103.70
2018-11-27T09:07:41.065Z,93.33
2018-11-27T09:10:15.146Z,111.23
2018-11-27T09:12:43.206Z,121.27
2018-11-27T09:15:12.554Z,110.87
2018-11-27T09:17:41.357Z,135.80
2018-11-27T09:20:10.551Z,130.67
2018-11-27T09:22:38.752Z,166.13
2018-11-27T09:25:09.529Z,151.20
2018-11-27T09:27:37.578Z,188.83
2018-11-27T09:30:10.618Z,163.70
2018-11-27T09:32:38.741Z,190.30
2018-11-27T09:35:06.901Z,198.90
2018-11-27T09:37:34.963Z,190.50
2018-11-27T09:40:03.080Z,196.43
2018-11-27T09:42:31.181Z,171.07
2018-11-27T09:44:59.209Z,207.20
2018-11-27T09:47:27.268Z,231.87
2018-11-27T09:49:55.350Z,241.63
2018-11-27T09:52:23.502Z,243.57
2018-11-27T09:54:51.521Z,242.87
2018-11-27T09:57:19.649Z,227.63
2018-11-27T09:59:47.685Z,207.93
2018-11-27T10:02:15.804Z,212.13
2018-11-27T10:04:43.838Z,188.60
2018-11-27T10:07:11.868Z,204.77
2018-11-27T10:09:40.048Z,190.37
2018-11-27T10:12:08.283Z,181.80
2018-11-27T10:14:36.448Z,192.53
2018-11-27T10:17:04.673Z,226.10
2018-11-27T10:19:32.707Z,203.70
2018-11-27T10:22:00.739Z,227.30
2018-11-27T10:24:28.777Z,232.93
2018-11-27T10:26:56.800Z,212.13
2018-11-27T10:29:24.844Z,254.53
2018-11-27T10:31:52.864Z,241.97
2018-11-27T10:34:20.913Z,258.90
2018-11-27T10:36:48.963Z,271.60
2018-11-27T10:39:17.021Z,252.23
2018-11-27T10:41:45.061Z,247.23
2018-11-27T10:44:13.090Z,250.17
2018-11-27T10:46:41.117Z,242.33
2018-11-27T10:49:09.158Z,263.83
2018-11-27T10:51:37.200Z,293.97
2018-11-27T10:54:05.986Z,326.03
2018-11-27T10:56:34.019Z,297.60
2018-11-27T10:59:02.085Z,301.03
2018-11-27T11:01:35.722Z,325.53
2018-11-27T11:04:03.785Z,248.37
2018-11-27T11:06:32.651Z,269.97
2018-11-27T11:09:01.174Z,270.77
2018-11-27T11:11:29.205Z,283.37
2018-11-27T11:13:57.229Z,225.37
2018-11-27T11:16:25.472Z,270.07
2018-11-27T11:18:53.714Z,243.47
2018-11-27T11:21:21.746Z,254.47
2018-11-27T11:23:49.786Z,172.63
2018-11-27T11:26:17.832Z,187.13
2018-11-27T11:28:45.873Z,182.83
2018-11-27T11:31:13.905Z,199.40
2018-11-27T11:33:41.945Z,227.23
2018-11-27T11:36:10.014Z,194.67
2018-11-27T11:38:38.070Z,208.07
2018-11-27T11:41:09.637Z,198.33
2018-11-27T11:43:37.672Z,208.07
2018-11-27T11:46:05.999Z,203.43
2018-11-27T11:48:34.042Z,195.90
2018-11-27T11:51:02.189Z,154.40
2018-11-27T11:53:30.229Z,193.53
2018-11-27T11:55:58.276Z,161.10
2018-11-27T11:58:26.342Z,141.10
2018-11-27T12:00:55.294Z,141.60
2018-11-27T12:03:23.313Z,147.13
2018-11-27T12:05:51.360Z,196.63
2018-11-27T12:08:19.380Z,223.10
2018-11-27T12:10:47.409Z,220.60
2018-11-27T12:13:15.430Z,183.10
2018-11-27T12:15:43.453Z,219.30
2018-11-27T12:18:11.472Z,205.43
2018-11-27T12:20:46.885Z,225.70
2018-11-27T12:23:14.945Z,229.70
2018-11-27T12:25:42.986Z,263.07
2018-11-27T12:28:14.760Z,260.83
2018-11-27T12:30:39.230Z,238.63
2018-11-27T12:33:07.453Z,241.60
2018-11-27T12:35:35.537Z,269.00
2018-11-27T12:38:03.558Z,255.47
2018-11-27T12:40:31.608Z,239.93
2018-11-27T12:42:59.644Z,227.90
2018-11-27T12:45:29.257Z,236.30
2018-11-27T12:47:58.342Z,195.00
2018-11-27T12:50:42.232Z,218.30
2018-11-27T12:53:16.539Z,208.93
2018-11-27T12:55:41.006Z,223.57
2018-11-27T12:58:09.141Z,204.40
2018-11-27T13:00:37.187Z,207.87
2018-11-27T13:03:05.421Z,222.50
2018-11-27T13:05:38.590Z,231.73
2018-11-27T13:08:14.865Z,234.53
2018-11-27T13:10:42.898Z,175.67
2018-11-27T13:13:10.947Z,157.00
2018-11-27T13:15:39.799Z,144.50
2018-11-27T13:18:08.825Z,173.47
2018-11-27T13:20:36.970Z,162.90
2018-11-27T13:23:05.038Z,185.53
2018-11-27T13:25:33.076Z,220.23
2018-11-27T13:28:01.119Z,216.33
2018-11-27T13:31:04.171Z,234.57
2018-11-27T13:33:37.749Z,207.33
2018-11-27T13:36:07.509Z,215.13
2018-11-27T13:38:35.554Z,219.97
2018-11-27T13:41:03.586Z,199.50
2018-11-27T13:43:31.612Z,192.53
2018-11-27T13:46:00.666Z,208.47
2018-11-27T13:48:28.694Z,199.20
2018-11-27T13:50:56.745Z,189.73
2018-11-27T13:53:24.824Z,208.37
2018-11-27T13:55:52.840Z,221.73
2018-11-27T13:58:20.878Z,196.00
2018-11-27T14:00:48.906Z,225.70
2018-11-27T14:03:16.995Z,211.70
2018-11-27T14:05:45.036Z,209.37
2018-11-27T14:08:13.093Z,194.00
2018-11-27T14:10:41.225Z,202.53
2018-11-27T14:13:09.460Z,206.80
2018-11-27T14:15:37.845Z,230.00
2018-11-27T14:18:06.520Z,228.83
2018-11-27T14:20:34.564Z,225.13
2018-11-27T14:23:02.595Z,248.40
2018-11-27T14:25:30.654Z,221.83
2018-11-27T14:27:58.678Z,224.97
2018-11-27T14:30:26.728Z,221.17
2018-11-27T14:32:54.795Z,208.67
2018-11-27T14:35:23.477Z,223.70
2018-11-27T14:37:52.619Z,227.80
2018-11-27T14:40:22.810Z,232.30
2018-11-27T14:42:50.830Z,225.63
2018-11-27T14:45:21.224Z,229.67
2018-11-27T14:47:50.338Z,240.67
2018-11-27T14:50:18.425Z,218.33
2018-11-27T14:52:46.490Z,228.53
2018-11-27T14:55:19.893Z,229.30
2018-11-27T14:57:47.938Z,222.53
2018-11-27T15:00:16.833Z,221.17
2018-11-27T15:02:44.865Z,220.67
2018-11-27T15:05:14.313Z,238.33
2018-11-27T15:07:42.382Z,233.70
2018-11-27T15:10:11.481Z,238.67
2018-11-27T15:12:39.581Z,216.83
2018-11-27T15:15:09.454Z,206.97
2018-11-27T15:17:37.505Z,214.87
2018-11-27T15:20:11.212Z,237.27
2018-11-27T15:22:39.274Z,237.40
2018-11-27T15:25:07.569Z,225.37
2018-11-27T15:27:36.372Z,235.40
2018-11-27T15:30:16.385Z,217.93
2018-11-27T15:32:44.501Z,211.77
2018-11-27T15:35:13.198Z,221.67
2018-11-27T15:37:41.313Z,209.43
2018-11-27T15:40:14.404Z,200.73
2018-11-27T15:42:42.473Z,190.70
2018-11-27T15:45:14.874Z,199.43
2018-11-27T15:47:42.934Z,202.27
2018-11-27T15:50:11.008Z,171.53
2018-11-27T15:52:39.045Z,173.70
2018-11-27T15:55:11.257Z,186.67
2018-11-27T15:57:39.301Z,178.07
2018-11-27T16:00:10.469Z,176.40
2018-11-27T16:02:38.518Z,144.97
2018-11-27T16:05:06.557Z,168.93
2018-11-27T16:07:34.587Z,150.03
2018-11-27T16:10:02.633Z,198.27
2018-11-27T16:12:30.676Z,195.83
2018-11-27T16:14:58.726Z,202.33
2018-11-27T16:17:26.773Z,215.67
2018-11-27T16:19:54.812Z,234.67
2018-11-27T16:22:22.878Z,219.67
2018-11-27T16:24:50.946Z,225.27
2018-11-27T16:27:18.998Z,222.33
2018-11-27T16:29:47.057Z,213.53
2018-11-27T16:32:15.107Z,230.20
2018-11-27T16:34:43.166Z,208.53
2018-11-27T16:37:11.209Z,232.20
2018-11-27T16:39:39.250Z,212.20
2018-11-27T16:42:07.272Z,203.50
2018-11-27T16:44:35.303Z,206.93
2018-11-27T16:47:03.371Z,220.63
2018-11-27T16:49:31.390Z,220.70
2018-11-27T16:51:59.483Z,232.63
2018-11-27T16:54:27.528Z,246.57
2018-11-27T16:56:55.594Z,245.80
2018-11-27T16:59:23.622Z,220.03
2018-11-27T17:01:51.702Z,232.73
2018-11-27T17:04:19.730Z,231.00
2018-11-27T17:06:47.742Z,225.87
2018-11-27T17:09:15.778Z,211.27
2018-11-27T17:11:43.814Z,235.27
2018-11-27T17:14:11.875Z,234.27
2018-11-27T17:16:39.942Z,206.23
2018-11-27T17:19:07.980Z,207.63
2018-11-27T17:21:36.024Z,195.73
2018-11-27T17:24:04.077Z,179.80
2018-11-27T17:26:32.128Z,180.13
2018-11-27T17:29:00.190Z,183.77
2018-11-27T17:31:28.259Z,200.97
2018-11-27T17:34:06.474Z,188.47
2018-11-27T17:36:34.551Z,214.37
2018-11-27T17:39:02.610Z,221.97
2018-11-27T17:41:30.642Z,197.23
2018-11-27T17:43:58.678Z,212.37
2018-11-27T17:46:26.728Z,216.77
2018-11-27T17:48:54.776Z,223.93
2018-11-27T17:51:22.834Z,195.47
2018-11-27T17:53:50.905Z,165.73
2018-11-27T17:56:18.937Z,204.73
2018-11-27T17:58:46.984Z,175.37
2018-11-27T18:01:15.031Z,178.17
2018-11-27T18:03:43.057Z,211.17
2018-11-27T18:06:11.110Z,192.40
2018-11-27T18:08:39.154Z,205.30
2018-11-27T18:11:07.209Z,174.10
2018-11-27T18:13:35.999Z,171.30
2018-11-27T18:16:03.856Z,154.90
2018-11-27T18:18:31.886Z,184.23
2018-11-27T18:20:59.963Z,175.20
2018-11-27T18:23:27.999Z,147.37
2018-11-27T18:25:56.050Z,187.50
2018-11-27T18:28:24.079Z,167.60
2018-11-27T18:30:52.126Z,193.10
2018-11-27T18:33:20.174Z,173.83
2018-11-27T18:35:48.205Z,167.80
2018-11-27T18:38:16.250Z,139.30
2018-11-27T18:40:44.296Z,158.87
2018-11-27T18:43:12.338Z,179.33
2018-11-27T18:45:40.404Z,173.37
2018-11-27T18:48:08.462Z,166.97
2018-11-27T18:50:36.530Z,145.77
2018-11-27T18:53:04.606Z,167.13
2018-11-27T18:55:32.665Z,140.63
2018-11-27T18:58:00.818Z,132.87
2018-11-27T19:00:30.053Z,130.70
2018-11-27T19:02:58.138Z,157.83
2018-11-27T19:05:26.188Z,147.57
2018-11-27T19:07:54.239Z,154.57
2018-11-27T19:10:23.550Z,161.83
2018-11-27T19:12:51.861Z,139.40
2018-11-27T19:15:50.780Z,153.57
2018-11-27T19:18:21.182Z,177.53
2018-11-27T19:20:49.226Z,153.90
2018-11-27T19:23:18.324Z,145.40
2018-11-27T19:25:46.430Z,128.30
2018-11-27T19:28:14.482Z,134.03
2018-11-27T19:30:42.563Z,160.43
2018-11-27T19:33:10.612Z,143.97
2018-11-27T19:35:38.921Z,150.87
2018-11-27T19:38:09.530Z,141.77
2018-11-27T19:40:37.620Z,159.77
2018-11-27T19:43:05.973Z,168.10
2018-11-27T19:45:34.623Z,153.23
2018-11-27T19:48:02.699Z,182.50
2018-11-27T19:50:34.229Z,168.90
2018-11-27T19:53:02.542Z,157.83
2018-11-27T19:55:31.325Z,146.17
2018-11-27T19:57:59.771Z,141.67
2018-11-27T20:00:28.523Z,185.33
2018-11-27T20:02:56.774Z,140.27
2018-11-27T20:05:26.369Z,163.03
2018-11-27T20:07:54.513Z,148.40
2018-11-27T20:10:27.956Z,171.37
2018-11-27T20:12:56.062Z,157.53
2018-11-27T20:15:27.046Z,142.43
2018-11-27T20:17:55.833Z,180.70
2018-11-27T20:20:24.967Z,170.67
2018-11-27T20:22:53.816Z,163.60
2018-11-27T20:25:22.654Z,189.17
2018-11-27T20:27:50.983Z,202.77
2018-11-27T20:30:20.833Z,146.83
2018-11-27T20:32:53.045Z,175.03
2018-11-27T20:35:21.926Z,153.57
2018-11-27T20:37:50.860Z,189.70
2018-11-27T20:40:19.545Z,185.00
2018-11-27T20:42:47.697Z,182.93
2018-11-27T20:45:19.554Z,189.93
2018-11-27T20:47:49.223Z,228.77
2018-11-27T20:50:19.297Z,182.47
2018-11-27T20:52:47.607Z,201.27
2018-11-27T20:55:15.847Z,233.10
2018-11-27T20:57:59.084Z,195.93
2018-11-27T21:00:30.771Z,190.57
2018-11-27T21:03:00.012Z,224.23
2018-11-27T21:05:28.150Z,197.43
2018-11-27T21:07:56.326Z,182.00
2018-11-27T21:10:24.528Z,195.20
2018-11-27T21:12:52.572Z,203.47
2018-11-27T21:15:20.674Z,230.93
2018-11-27T21:17:48.774Z,195.87
2018-11-27T21:20:23.418Z,211.07
2018-11-27T21:22:51.498Z,190.87
2018-11-27T21:25:22.446Z,198.53
2018-11-27T21:27:54.999Z,152.27
2018-11-27T21:30:23.074Z,145.47
2018-11-27T21:32:51.141Z,181.53
2018-11-27T21:35:19.189Z,140.13
2018-11-27T21:37:47.242Z,141.93
2018-11-27T21:40:16.955Z,160.53
2018-11-27T21:42:45.085Z,115.67
2018-11-27T21:45:16.360Z,127.90
2018-11-27T21:47:44.611Z,108.97
2018-11-27T21:50:14.921Z,181.30
2018-11-27T21:52:43.078Z,132.83
2018-11-27T21:55:12.054Z,178.90
2018-11-27T21:57:40.302Z,198.47
2018-11-27T22:00:12.927Z,189.23
2018-11-27T22:02:40.998Z,228.67
2018-11-27T22:05:09.390Z,226.47
2018-11-27T22:07:37.465Z,210.80
2018-11-27T22:10:08.879Z,218.70
2018-11-27T22:12:36.978Z,212.63
2018-11-27T22:15:07.886Z,222.60
2018-11-27T22:17:35.926Z,232.23
2018-11-27T22:20:05.278Z,233.03
2018-11-27T22:22:33.370Z,262.70
2018-11-27T22:25:01.419Z,238.33
2018-11-27T22:27:29.490Z,246.77
2018-11-27T22:29:57.546Z,228.77
2018-11-27T22:32:25.586Z,233.57
2018-11-27T22:34:54.015Z,237.87
2018-11-27T22:37:22.083Z,234.37
2018-11-27T22:39:50.111Z,266.33
2018-11-27T22:42:18.183Z,244.70
2018-11-27T22:44:46.225Z,262.87
2018-11-27T22:47:14.409Z,274.87
2018-11-27T22:49:42.478Z,264.13
2018-11-27T22:52:10.636Z,277.20
2018-11-27T22:54:38.694Z,227.87
2018-11-27T22:57:06.769Z,257.70
2018-11-27T22:59:34.931Z,252.70
2018-11-27T23:02:03.097Z,255.53
2018-11-27T23:04:31.157Z,255.63
2018-11-27T23:07:05.989Z,249.40
2018-11-27T23:09:34.110Z,265.97
2018-11-27T23:12:02.265Z,252.30
2018-11-27T23:14:30.375Z,239.17
2018-11-27T23:16:58.441Z,225.23
2018-11-27T23:19:26.550Z,220.27
2018-11-27T23:21:54.629Z,216.27
2018-11-27T23:24:22.745Z,245.17
2018-11-27T23:26:57.487Z,249.30
2018-11-27T23:29:25.584Z,228.93
2018-11-27T23:31:53.770Z,234.10
2018-11-27T23:34:21.894Z,240.93
2018-11-27T23:36:49.960Z,228.87
2018-11-27T23:39:18.110Z,236.30
2018-11-27T23:41:46.205Z,253.83
2018-11-27T23:44:14.329Z,275.30
2018-11-27T23:46:42.447Z,293.93
2018-11-27T23:49:10.521Z,274.73
2018-11-27T23:51:38.650Z,280.93
2018-11-27T23:54:06.735Z,283.97
2018-11-27T23:56:34.866Z,267.17
2018-11-27T23:59:02.950Z,265.40
